createdAt,value
2019-06-26T00:00:00.188Z,12.80
2019-06-26T00:02:29.524Z,12.37
2019-06-26T00:04:58.864Z,12.77
2019-06-26T00:07:28.131Z,11.37
2019-06-26T00:09:57.497Z,12.60
2019-06-26T00:12:27.001Z,12.57
2019-06-26T00:14:56.352Z,12.17
2019-06-26T00:17:26.637Z,12.23
2019-06-26T00:19:55.962Z,13.20
2019-06-26T00:22:25.273Z,13.33
2019-06-26T00:24:54.557Z,13.10
2019-06-26T00:27:23.929Z,12.77
2019-06-26T00:29:54.922Z,12.73
2019-06-26T00:32:24.225Z,12.27
2019-06-26T00:34:53.690Z,12.53
2019-06-26T00:37:22.993Z,13.07
2019-06-26T00:39:52.278Z,13.40
2019-06-26T00:42:21.617Z,13.40
2019-06-26T00:44:50.935Z,13.07
2019-06-26T00:47:20.284Z,13.00
2019-06-26T00:49:49.591Z,13.83
2019-06-26T00:52:18.975Z,14.27
2019-06-26T00:54:48.356Z,13.30
2019-06-26T00:57:17.689Z,13.83
2019-06-26T00:59:48.058Z,13.90
2019-06-26T01:02:17.533Z,14.37
2019-06-26T01:04:48.715Z,14.47
2019-06-26T01:07:18.094Z,13.90
2019-06-26T01:09:47.394Z,13.13
2019-06-26T01:12:16.783Z,14.23
2019-06-26T01:14:46.060Z,13.47
2019-06-26T01:17:15.395Z,14.60
2019-06-26T01:19:44.680Z,14.77
2019-06-26T01:22:13.963Z,14.50
2019-06-26T01:24:43.227Z,14.30
2019-06-26T01:27:12.525Z,14.27
2019-06-26T01:29:41.899Z,14.67
2019-06-26T01:32:12.287Z,14.00
2019-06-26T01:34:41.763Z,14.90
2019-06-26T01:37:11.133Z,13.87
2019-06-26T01:39:40.460Z,14.40
2019-06-26T01:42:09.774Z,14.13
2019-06-26T01:44:39.042Z,14.47
2019-06-26T01:47:08.321Z,14.80
2019-06-26T01:49:37.615Z,15.10
2019-06-26T01:52:06.997Z,14.37
2019-06-26T01:54:36.254Z,14.40
2019-06-26T01:57:05.735Z,13.47
2019-06-26T01:59:35.145Z,14.50
2019-06-26T02:02:04.738Z,14.03
2019-06-26T02:04:34.200Z,15.70
2019-06-26T02:07:03.548Z,13.87
2019-06-26T02:09:32.800Z,15.27
2019-06-26T02:12:02.128Z,14.87
2019-06-26T02:14:32.007Z,15.90
2019-06-26T02:17:01.341Z,16.33
2019-06-26T02:19:30.679Z,16.17
2019-06-26T02:21:59.984Z,15.50
2019-06-26T02:24:29.305Z,15.67
2019-06-26T02:26:58.649Z,16.27
2019-06-26T02:29:27.958Z,15.90
2019-06-26T02:31:57.217Z,16.33
2019-06-26T02:34:25.303Z,15.70
2019-06-26T02:36:54.532Z,15.87
2019-06-26T02:39:23.804Z,16.73
2019-06-26T02:41:53.061Z,16.27
2019-06-26T02:44:22.354Z,15.90
2019-06-26T02:46:51.609Z,16.77
2019-06-26T02:49:20.879Z,16.73
2019-06-26T02:51:51.486Z,16.23
2019-06-26T02:54:20.773Z,15.20
2019-06-26T02:56:50.116Z,16.40
2019-06-26T02:59:19.434Z,16.90
2019-06-26T03:01:48.740Z,17.07
2019-06-26T03:04:18.085Z,16.50
2019-06-26T03:06:47.362Z,17.03
2019-06-26T03:09:16.666Z,16.83
2019-06-26T03:11:45.941Z,17.13
2019-06-26T03:14:15.267Z,17.50
2019-06-26T03:16:44.546Z,17.00
2019-06-26T03:19:13.862Z,17.43
2019-06-26T03:21:43.128Z,16.97
2019-06-26T03:24:12.377Z,17.60
2019-06-26T03:26:41.680Z,18.03
2019-06-26T03:29:10.977Z,17.10
2019-06-26T03:31:40.407Z,18.27
2019-06-26T03:34:11.406Z,18.43
2019-06-26T03:36:40.758Z,17.80
2019-06-26T03:39:10.058Z,18.63
2019-06-26T03:41:39.485Z,17.73
2019-06-26T03:44:08.751Z,18.07
2019-06-26T03:46:38.087Z,17.60
2019-06-26T03:49:07.361Z,18.33
2019-06-26T03:51:36.695Z,17.67
2019-06-26T03:54:05.999Z,17.13
2019-06-26T03:56:35.295Z,19.73
2019-06-26T03:59:04.581Z,18.73
2019-06-26T04:01:33.910Z,17.27
2019-06-26T04:04:03.245Z,18.30
2019-06-26T04:06:32.500Z,18.80
2019-06-26T04:09:01.809Z,18.07
2019-06-26T04:11:31.061Z,18.20
2019-06-26T04:14:00.362Z,17.93
2019-06-26T04:16:29.664Z,19.33
2019-06-26T04:18:58.940Z,19.70
2019-06-26T04:21:28.204Z,20.60
2019-06-26T04:23:57.564Z,19.43
2019-06-26T04:26:26.883Z,19.07
2019-06-26T04:28:56.209Z,18.47
2019-06-26T04:31:25.611Z,19.07
2019-06-26T04:33:54.919Z,19.73
2019-06-26T04:36:24.225Z,18.13
2019-06-26T04:38:53.655Z,18.93
2019-06-26T04:41:23.015Z,21.00
2019-06-26T04:43:52.380Z,21.43
2019-06-26T04:46:21.836Z,20.97
2019-06-26T04:48:51.254Z,21.07
2019-06-26T04:51:20.689Z,20.87
2019-06-26T04:53:50.021Z,21.47
2019-06-26T04:56:19.309Z,21.00
2019-06-26T04:58:48.733Z,22.77
2019-06-26T05:01:18.040Z,24.60
2019-06-26T05:03:47.375Z,24.20
2019-06-26T05:06:16.722Z,23.70
2019-06-26T05:08:46.073Z,25.50
2019-06-26T05:11:16.573Z,24.90
2019-06-26T05:13:45.885Z,23.80
2019-06-26T05:16:19.221Z,25.60
2019-06-26T05:18:46.305Z,25.17
2019-06-26T05:21:15.625Z,30.17
2019-06-26T05:23:45.278Z,27.10
2019-06-26T05:26:14.628Z,26.40
2019-06-26T05:28:44.031Z,26.77
2019-06-26T05:31:13.385Z,29.00
2019-06-26T05:33:44.093Z,31.77
2019-06-26T05:36:13.417Z,27.60
2019-06-26T05:38:42.671Z,28.47
2019-06-26T05:41:11.973Z,28.67
2019-06-26T05:43:41.310Z,27.73
2019-06-26T05:46:10.570Z,30.30
2019-06-26T05:48:39.862Z,32.37
2019-06-26T05:51:09.082Z,33.43
2019-06-26T05:53:38.374Z,33.93
2019-06-26T05:56:07.662Z,35.37
2019-06-26T05:58:36.995Z,33.63
2019-06-26T06:01:06.377Z,34.20
2019-06-26T06:03:35.680Z,32.57
2019-06-26T06:06:04.958Z,36.17
2019-06-26T06:08:34.330Z,34.63
2019-06-26T06:11:03.667Z,36.93
2019-06-26T06:13:32.937Z,34.77
2019-06-26T06:16:06.165Z,38.00
2019-06-26T06:18:33.202Z,40.57
2019-06-26T06:21:02.523Z,37.83
2019-06-26T06:23:31.866Z,37.57
2019-06-26T06:26:01.187Z,38.10
2019-06-26T06:28:30.606Z,36.00
2019-06-26T06:30:59.933Z,39.90
2019-06-26T06:33:29.409Z,38.57
2019-06-26T06:35:59.088Z,36.10
2019-06-26T06:38:28.480Z,34.90
2019-06-26T06:40:57.857Z,37.37
2019-06-26T06:43:27.102Z,36.37
2019-06-26T06:45:56.510Z,33.77
2019-06-26T06:48:25.791Z,34.00
2019-06-26T06:50:55.092Z,34.53
2019-06-26T06:53:24.397Z,33.27
2019-06-26T06:55:53.769Z,33.97
2019-06-26T06:58:23.075Z,39.03
2019-06-26T07:00:52.345Z,35.43
2019-06-26T07:03:21.644Z,37.73
2019-06-26T07:05:51.201Z,35.85
2019-06-26T07:08:20.492Z,34.90
2019-06-26T07:10:52.131Z,33.85
2019-06-26T07:13:21.410Z,33.87
2019-06-26T07:15:50.873Z,32.65
2019-06-26T07:18:20.192Z,35.07
2019-06-26T07:20:49.485Z,33.80
2019-06-26T07:23:18.907Z,30.97
2019-06-26T07:25:48.323Z,31.87
2019-06-26T07:28:17.681Z,31.70
2019-06-26T07:30:47.171Z,31.55
2019-06-26T07:33:16.678Z,31.93
2019-06-26T07:35:46.356Z,33.93
2019-06-26T07:38:15.649Z,31.30
2019-06-26T07:40:44.961Z,31.42
2019-06-26T07:43:16.547Z,31.77
2019-06-26T07:45:45.363Z,31.25
2019-06-26T07:48:14.649Z,30.05
2019-06-26T07:50:43.916Z,28.60
2019-06-26T07:53:13.185Z,29.25
2019-06-26T07:55:42.516Z,31.17
2019-06-26T07:58:11.739Z,27.93
2019-06-26T08:00:41.110Z,27.87
2019-06-26T08:03:10.429Z,24.77
2019-06-26T08:05:42.803Z,25.27
2019-06-26T08:08:14.359Z,25.17
2019-06-26T08:10:42.272Z,24.13
2019-06-26T08:13:11.572Z,27.02
2019-06-26T08:15:41.378Z,25.32
2019-06-26T08:18:10.759Z,23.77
2019-06-26T08:20:55.033Z,22.25
2019-06-26T08:23:11.357Z,22.45
2019-06-26T08:25:40.820Z,23.07
2019-06-26T08:28:10.164Z,23.50
2019-06-26T08:30:39.801Z,23.52
2019-06-26T08:33:09.254Z,21.85
2019-06-26T08:35:39.638Z,22.52
2019-06-26T08:38:14.117Z,23.77
2019-06-26T08:40:40.095Z,23.07
2019-06-26T08:43:09.518Z,22.98
2019-06-26T08:45:38.892Z,23.85
2019-06-26T08:48:22.698Z,21.77
2019-06-26T08:50:39.205Z,25.30
2019-06-26T08:53:08.491Z,23.32
2019-06-26T08:55:37.775Z,21.52
2019-06-26T08:58:07.111Z,24.20
2019-06-26T09:00:37.415Z,23.18
2019-06-26T09:03:06.732Z,23.70
2019-06-26T09:05:47.380Z,25.75
2019-06-26T09:08:07.487Z,25.50
2019-06-26T09:10:38.793Z,24.00
2019-06-26T09:13:08.150Z,23.35
2019-06-26T09:15:37.567Z,22.67
2019-06-26T09:18:06.864Z,23.55
2019-06-26T09:20:39.327Z,23.42
2019-06-26T09:23:08.977Z,21.95
2019-06-26T09:25:38.246Z,21.27
2019-06-26T09:28:08.059Z,21.93
2019-06-26T09:30:37.358Z,20.50
2019-06-26T09:33:06.661Z,20.95
2019-06-26T09:35:35.947Z,20.85
2019-06-26T09:38:05.450Z,19.40
2019-06-26T09:40:34.903Z,19.48
2019-06-26T09:43:04.201Z,20.02
2019-06-26T09:45:33.636Z,17.82
2019-06-26T09:48:03.009Z,19.77
2019-06-26T09:50:32.277Z,19.77
2019-06-26T09:53:05.043Z,18.02
2019-06-26T09:55:32.760Z,17.15
2019-06-26T09:58:02.050Z,18.40
2019-06-26T10:00:32.782Z,18.20
2019-06-26T10:03:02.282Z,17.35
2019-06-26T10:05:31.582Z,17.23
2019-06-26T10:08:00.887Z,15.70
2019-06-26T10:10:30.455Z,16.85
2019-06-26T10:12:59.984Z,15.83
2019-06-26T10:15:29.420Z,16.55
2019-06-26T10:17:58.721Z,15.45
2019-06-26T10:20:27.965Z,15.95
2019-06-26T10:22:57.337Z,13.65
2019-06-26T10:25:26.681Z,15.38
2019-06-26T10:27:56.018Z,13.98
2019-06-26T10:30:26.030Z,12.68
2019-06-26T10:35:46.797Z,13.03
2019-06-26T10:38:16.160Z,11.93
2019-06-26T10:40:46.813Z,12.33
2019-06-26T10:43:16.130Z,13.48
2019-06-26T10:45:45.521Z,13.15
2019-06-26T10:48:14.838Z,12.25
2019-06-26T10:50:51.074Z,12.47
2019-06-26T10:53:15.106Z,11.70
2019-06-26T10:55:44.583Z,11.10
2019-06-26T10:58:13.900Z,10.65
2019-06-26T11:00:43.246Z,11.57
2019-06-26T11:03:12.624Z,11.53
2019-06-26T11:05:42.427Z,11.28
2019-06-26T11:08:11.688Z,10.75
2019-06-26T11:10:41.034Z,11.18
2019-06-26T11:13:10.277Z,11.18
2019-06-26T11:15:39.613Z,11.45
2019-06-26T11:18:08.932Z,10.43
2019-06-26T11:20:38.270Z,11.45
2019-06-26T11:23:07.611Z,11.40
2019-06-26T11:25:38.425Z,11.68
2019-06-26T11:28:07.780Z,11.20
2019-06-26T11:30:37.162Z,12.37
2019-06-26T11:33:06.528Z,11.73
2019-06-26T11:35:35.866Z,11.60
2019-06-26T11:38:05.157Z,10.40
2019-06-26T11:40:34.521Z,11.20
2019-06-26T11:43:03.949Z,10.68
2019-06-26T11:45:33.473Z,9.98
2019-06-26T11:48:02.832Z,10.95
2019-06-26T11:50:33.718Z,9.93
2019-06-26T11:53:03.014Z,10.30
2019-06-26T11:55:32.329Z,10.50
2019-06-26T11:58:01.628Z,10.80
2019-06-26T12:00:31.276Z,10.70
2019-06-26T12:03:00.691Z,10.48
2019-06-26T12:05:30.085Z,14.87
2019-06-26T12:07:59.382Z,13.48
2019-06-26T12:10:28.796Z,14.07
2019-06-26T12:12:58.194Z,13.18
2019-06-26T12:15:27.860Z,13.98
2019-06-26T12:17:57.304Z,13.48
2019-06-26T12:20:26.673Z,14.85
2019-06-26T12:22:56.047Z,14.28
2019-06-26T12:25:25.531Z,15.83
2019-06-26T12:27:54.839Z,13.83
2019-06-26T12:30:24.433Z,10.88
2019-06-26T12:33:03.093Z,10.93
2019-06-26T12:35:24.948Z,12.75
2019-06-26T12:37:56.123Z,12.82
2019-06-26T12:40:25.650Z,12.95
2019-06-26T12:42:55.861Z,12.98
2019-06-26T12:45:25.578Z,13.00
2019-06-26T12:47:54.931Z,12.43
2019-06-26T12:50:34.810Z,12.93
2019-06-26T12:52:55.584Z,14.20
2019-06-26T12:55:25.069Z,14.63
2019-06-26T12:58:08.386Z,14.68
2019-06-26T13:00:26.212Z,15.55
2019-06-26T13:02:55.560Z,17.23
2019-06-26T13:05:25.132Z,16.35
2019-06-26T13:07:54.399Z,17.77
2019-06-26T13:10:24.333Z,16.73
2019-06-26T13:12:53.636Z,18.32
2019-06-26T13:15:22.913Z,17.60
2019-06-26T13:17:52.192Z,21.27
2019-06-26T13:20:22.371Z,27.77
2019-06-26T13:22:51.698Z,23.27
2019-06-26T13:28:00.455Z,22.52
2019-06-26T13:30:36.680Z,24.35
2019-06-26T13:33:06.105Z,21.95
2019-06-26T13:35:35.439Z,21.97
2019-06-26T13:38:04.878Z,22.50
2019-06-26T13:40:34.393Z,20.15
2019-06-26T13:43:03.923Z,20.92
2019-06-26T13:45:33.264Z,19.45
2019-06-26T13:48:02.765Z,20.15
2019-06-26T13:50:32.275Z,19.45
2019-06-26T13:53:01.609Z,18.77
2019-06-26T13:55:30.930Z,19.67
2019-06-26T13:58:00.306Z,17.05
2019-06-26T14:00:29.664Z,17.92
2019-06-26T14:02:59.038Z,17.60
2019-06-26T14:05:29.543Z,16.65
2019-06-26T14:08:01.237Z,16.05
2019-06-26T14:10:30.566Z,15.93
2019-06-26T14:12:59.869Z,17.15
2019-06-26T14:15:29.239Z,16.10
2019-06-26T14:17:58.606Z,14.80
2019-06-26T14:20:28.461Z,15.08
2019-06-26T14:22:57.803Z,15.30
2019-06-26T14:25:27.238Z,14.18
2019-06-26T14:27:56.626Z,13.70
2019-06-26T14:30:27.972Z,14.23
2019-06-26T14:32:56.941Z,13.83
2019-06-26T14:35:26.217Z,13.25
2019-06-26T14:37:55.658Z,10.65
2019-06-26T14:40:25.914Z,11.20
2019-06-26T14:42:55.238Z,10.75
2019-06-26T14:45:24.569Z,10.78
2019-06-26T14:47:53.965Z,10.88
2019-06-26T14:50:23.388Z,10.43
2019-06-26T14:52:52.818Z,10.58
2019-06-26T14:55:22.735Z,11.15
2019-06-26T14:57:52.084Z,10.13
2019-06-26T15:00:24.723Z,9.58
2019-06-26T15:02:56.459Z,9.28
2019-06-26T15:05:25.805Z,9.45
2019-06-26T15:07:55.416Z,9.48
2019-06-26T15:10:24.748Z,8.50
2019-06-26T15:12:54.091Z,8.78
2019-06-26T15:15:23.426Z,9.28
2019-06-26T15:17:52.743Z,9.53
2019-06-26T15:20:22.094Z,9.58
2019-06-26T15:22:53.018Z,9.43
2019-06-26T15:25:22.718Z,10.05
2019-06-26T15:27:52.042Z,9.80
2019-06-26T15:30:23.854Z,9.73
2019-06-26T15:32:54.479Z,10.05
2019-06-26T15:35:26.574Z,9.98
2019-06-26T15:37:55.921Z,10.20
2019-06-26T15:40:25.323Z,10.95
2019-06-26T15:42:55.053Z,11.50
2019-06-26T15:45:24.525Z,10.68
2019-06-26T15:47:53.888Z,12.25
2019-06-26T15:50:23.200Z,10.65
2019-06-26T15:52:52.570Z,12.30
2019-06-26T15:55:22.235Z,12.07
2019-06-26T15:57:51.556Z,11.75
2019-06-26T16:00:21.030Z,11.60
2019-06-26T16:02:51.574Z,12.63
2019-06-26T16:05:20.833Z,11.88
2019-06-26T16:07:50.219Z,13.10
2019-06-26T16:10:19.634Z,14.53
2019-06-26T16:12:49.052Z,13.80
2019-06-26T16:15:18.704Z,12.43
2019-06-26T16:17:59.685Z,13.05
2019-06-26T16:20:29.078Z,12.63
2019-06-26T16:22:58.380Z,12.90
2019-06-26T16:25:27.870Z,14.00
2019-06-26T16:28:05.150Z,14.25
2019-06-26T16:30:29.905Z,13.62
2019-06-26T16:32:59.265Z,13.80
2019-06-26T16:35:28.585Z,13.13
2019-06-26T16:37:58.008Z,13.22
2019-06-26T16:40:27.492Z,12.07
2019-06-26T16:42:56.893Z,11.18
2019-06-26T16:45:26.166Z,11.80
2019-06-26T16:47:57.424Z,10.68
2019-06-26T16:50:26.833Z,11.35
2019-06-26T16:52:56.274Z,10.30
2019-06-26T16:55:25.692Z,11.10
2019-06-26T16:57:55.403Z,11.18
2019-06-26T17:00:24.796Z,10.70
2019-06-26T17:02:54.230Z,10.00
2019-06-26T17:05:23.671Z,9.90
2019-06-26T17:07:53.051Z,9.78
2019-06-26T17:10:22.612Z,10.28
2019-06-26T17:12:51.921Z,9.73
2019-06-26T17:15:21.837Z,10.10
2019-06-26T17:17:51.236Z,10.05
2019-06-26T17:20:20.871Z,10.18
2019-06-26T17:23:04.614Z,10.20
2019-06-26T17:25:22.756Z,9.35
2019-06-26T17:27:52.102Z,9.95
2019-06-26T17:30:21.527Z,9.15
2019-06-26T17:32:50.862Z,9.55
2019-06-26T17:35:20.221Z,9.58
2019-06-26T17:37:49.742Z,9.53
2019-06-26T17:40:42.987Z,8.68
2019-06-26T17:43:13.117Z,8.58
2019-06-26T17:45:43.770Z,8.78
2019-06-26T17:48:13.063Z,9.50
2019-06-26T17:50:42.504Z,8.00
2019-06-26T17:53:21.115Z,8.40
2019-06-26T17:55:43.037Z,8.30
2019-06-26T17:58:12.427Z,8.60
2019-06-26T18:00:41.858Z,9.30
2019-06-26T18:03:11.396Z,8.43
2019-06-26T18:05:41.126Z,8.33
2019-06-26T18:08:10.642Z,8.60
2019-06-26T18:10:40.124Z,8.33
2019-06-26T18:13:09.467Z,9.38
2019-06-26T18:15:38.894Z,8.80
2019-06-26T18:18:08.225Z,9.60
2019-06-26T18:20:37.657Z,9.00
2019-06-26T18:23:08.034Z,8.63
2019-06-26T18:25:37.501Z,10.93
2019-06-26T18:28:06.832Z,9.48
2019-06-26T18:30:36.394Z,10.38
2019-06-26T18:33:05.909Z,9.83
2019-06-26T18:35:35.446Z,10.10
2019-06-26T18:38:04.768Z,9.60
2019-06-26T18:40:34.122Z,9.13
2019-06-26T18:43:03.574Z,10.70
2019-06-26T18:45:34.073Z,9.60
2019-06-26T18:48:03.581Z,9.35
2019-06-26T18:50:33.086Z,9.95
2019-06-26T18:53:04.243Z,10.03
2019-06-26T18:55:34.718Z,9.15
2019-06-26T18:58:05.219Z,9.85
2019-06-26T19:00:34.629Z,8.88
2019-06-26T19:03:04.035Z,9.78
2019-06-26T19:05:35.414Z,8.63
2019-06-26T19:08:04.906Z,9.53
2019-06-26T19:10:36.212Z,9.10
2019-06-26T19:13:05.585Z,8.50
2019-06-26T19:15:34.943Z,8.40
2019-06-26T19:18:04.355Z,7.43
2019-06-26T19:20:34.022Z,7.70
2019-06-26T19:23:03.393Z,7.63
2019-06-26T19:25:32.903Z,6.60
2019-06-26T19:28:02.277Z,7.13
2019-06-26T19:30:31.686Z,6.80
2019-06-26T19:33:01.045Z,7.07
2019-06-26T19:35:30.760Z,6.90
2019-06-26T19:38:00.200Z,6.40
2019-06-26T19:40:29.663Z,6.67
2019-06-26T19:43:00.627Z,6.83
2019-06-26T19:45:31.496Z,6.63
2019-06-26T19:48:01.129Z,5.77
2019-06-26T19:50:33.048Z,6.83
2019-06-26T19:53:05.778Z,7.03
2019-06-26T19:55:35.286Z,6.43
2019-06-26T19:58:04.776Z,6.33
2019-06-26T20:00:34.309Z,6.80
2019-06-26T20:03:03.972Z,6.77
2019-06-26T20:05:33.449Z,6.73
2019-06-26T20:08:03.044Z,6.87
2019-06-26T20:10:32.827Z,6.73
2019-06-26T20:13:02.171Z,7.20
2019-06-26T20:15:31.723Z,6.63
2019-06-26T20:18:04.198Z,7.20
2019-06-26T20:20:33.800Z,7.20
2019-06-26T20:23:04.593Z,6.60
2019-06-26T20:25:33.944Z,7.07
2019-06-26T20:28:03.382Z,6.30
2019-06-26T20:30:35.000Z,6.63
2019-06-26T20:33:07.559Z,6.13
2019-06-26T20:35:38.894Z,6.83
2019-06-26T20:38:08.042Z,5.83
2019-06-26T20:40:37.376Z,6.60
2019-06-26T20:43:06.710Z,6.57
2019-06-26T20:45:39.569Z,6.23
2019-06-26T20:48:09.021Z,6.70
2019-06-26T20:50:39.882Z,7.07
2019-06-26T20:53:09.229Z,7.17
2019-06-26T20:55:38.563Z,7.10
2019-06-26T20:58:08.068Z,6.50
2019-06-26T21:00:39.218Z,6.97
2019-06-26T21:03:08.598Z,6.20
2019-06-26T21:05:37.939Z,7.37
2019-06-26T21:08:07.315Z,6.40
2019-06-26T21:10:36.739Z,6.33
2019-06-26T21:13:06.090Z,6.53
2019-06-26T21:15:35.538Z,6.73
2019-06-26T21:18:04.967Z,6.07
2019-06-26T21:20:34.303Z,6.40
2019-06-26T21:23:03.825Z,6.53
2019-06-26T21:25:33.220Z,6.67
2019-06-26T21:28:02.789Z,6.00
2019-06-26T21:30:32.262Z,6.43
2019-06-26T21:33:02.892Z,6.83
2019-06-26T21:35:32.247Z,6.93
2019-06-26T21:38:03.011Z,7.07
2019-06-26T21:40:32.430Z,6.60
2019-06-26T21:43:02.603Z,7.10
2019-06-26T21:45:32.121Z,8.20
2019-06-26T21:48:01.433Z,9.20
2019-06-26T21:50:30.849Z,8.67
2019-06-26T21:53:00.198Z,8.43
2019-06-26T21:55:34.078Z,8.63
2019-06-26T21:58:00.839Z,8.27
2019-06-26T22:00:32.731Z,7.63
2019-06-26T22:03:02.152Z,7.47
2019-06-26T22:05:31.506Z,7.87
2019-06-26T22:08:00.887Z,7.50
2019-06-26T22:10:30.327Z,6.30
2019-06-26T22:12:59.883Z,6.17
2019-06-26T22:15:29.359Z,6.10
2019-06-26T22:17:59.682Z,6.07
2019-06-26T22:20:29.229Z,5.03
2019-06-26T22:22:58.905Z,5.00
2019-06-26T22:25:28.227Z,4.90
2019-06-26T22:27:57.553Z,4.50
2019-06-26T22:30:27.063Z,4.60
2019-06-26T22:32:56.799Z,4.87
2019-06-26T22:35:26.214Z,4.87
2019-06-26T22:37:55.494Z,4.40
2019-06-26T22:40:24.887Z,5.57
2019-06-26T22:42:54.610Z,4.53
2019-06-26T22:45:24.060Z,5.17
2019-06-26T22:47:53.374Z,4.40
2019-06-26T22:50:22.894Z,4.40
2019-06-26T22:52:52.356Z,4.37
2019-06-26T22:55:21.741Z,5.30
2019-06-26T22:57:51.200Z,4.87
2019-06-26T23:00:21.744Z,5.00
2019-06-26T23:02:51.471Z,5.13
2019-06-26T23:05:22.965Z,4.70
2019-06-26T23:07:53.163Z,4.80
2019-06-26T23:10:22.672Z,4.97
2019-06-26T23:12:52.575Z,4.80
2019-06-26T23:15:21.906Z,4.50
2019-06-26T23:17:51.267Z,5.63
2019-06-26T23:20:22.431Z,5.10
2019-06-26T23:22:51.878Z,5.27
2019-06-26T23:25:21.187Z,5.60
2019-06-26T23:27:50.524Z,6.80
2019-06-26T23:30:21.437Z,6.23
2019-06-26T23:32:51.126Z,6.70
2019-06-26T23:35:20.394Z,7.07
2019-06-26T23:37:49.695Z,7.07
2019-06-26T23:40:19.447Z,6.87
2019-06-26T23:42:48.749Z,7.43
2019-06-26T23:45:18.480Z,8.17
2019-06-26T23:47:47.824Z,7.53
2019-06-26T23:50:17.156Z,8.10
2019-06-26T23:52:46.554Z,8.33
2019-06-26T23:55:16.151Z,8.47
2019-06-26T23:57:58.471Z,9.07
